CST,Max TemperatureF,Mean TemperatureF,Min TemperatureF,Max Dew PointF,MeanDew PointF,Min DewpointF,Max Humidity, Mean Humidity, Min Humidity, Max Sea Level PressureIn, Mean Sea Level PressureIn, Min Sea Level PressureIn, Max VisibilityMiles, Mean VisibilityMiles, Min VisibilityMiles, Max Wind SpeedMPH, Mean Wind SpeedMPH, Max Gust SpeedMPH,PrecipitationIn, CloudCover, Events, WindDirDegrees
2013-12-1,22,21,19,19,18,17,92,88,84,30.25,30.03,29.83,10,6,0,14,6,17,0.10,8,Fog-Snow,115
2013-12-2,27,25,22,23,21,19,92,87,81,29.83,29.71,29.63,10,5,1,22,14,26,0.07,8,Snow,54
2013-12-3,24,21,17,18,15,13,92,85,77,29.96,29.90,29.80,10,5,1,26,19,31,0.04,8,Snow,1
2013-12-4,20,13,6,18,11,1,92,86,80,29.95,29.83,29.71,3,1,0,30,20,37,0.15,8,Fog-Snow,355
2013-12-5,6,-1,-8,1,-3,-13,83,76,69,30.35,30.02,29.75,10,7,2,26,18,33,T,7,Snow,301
2013-12-6,-5,-13,-22,-13,-18,-24,79,69,59,30.64,30.52,30.35,10,10,10,16,9,18,0.00,0,,283
2013-12-7,-8,-16,-24,-17,-22,-28,80,69,57,30.65,30.59,30.49,10,10,10,14,9,16,0.00,2,,237
2013-12-8,0,-11,-23,-5,-12,-27,79,74,69,30.48,30.17,29.97,10,6,1,14,8,17,0.05,6,Snow,189
2013-12-9,-2,-9,-16,-8,-14,-22,79,71,63,30.07,29.93,29.75,10,8,2,20,10,23,0.02,5,Snow,231
2013-12-10,3,-7,-18,-4,-13,-22,87,78,69,30.41,30.07,29.90,10,8,1,17,10,20,0.01,3,Snow,291
2013-12-11,-2,-11,-21,-7,-16,-26,87,75,63,30.51,30.37,30.17,10,8,2,17,9,20,0.01,4,Snow,215
2013-12-12,9,-1,-12,2,-5,-15,86,79,72,30.32,30.26,30.23,10,8,2,18,7,21,T,7,Snow,345
2013-12-13,-3,-5,-7,-11,-13,-15,75,68,61,30.47,30.37,30.25,10,6,2,20,12,22,0.02,8,Snow,26
2013-12-14,-2,-11,-21,-9,-12,-22,82,75,68,30.43,30.29,30.21,10,5,1,14,7,16,0.05,7,Snow,344
2013-12-15,0,-9,-19,-6,-15,-23,81,75,68,30.30,30.16,29.93,10,8,2,20,8,24,0.02,8,Snow,135
2013-12-16,32,16,0,28,10,-4,87,75,63,29.98,29.82,29.73,10,7,0,30,18,37,0.10,6,Fog-Snow,222
2013-12-17,26,11,-4,21,7,-4,87,74,61,30.12,29.98,29.82,10,7,0,43,13,53,T,5,Fog-Snow,326
2013-12-18,22,11,-1,14,4,-6,87,77,67,30.10,29.79,29.58,10,6,1,36,16,41,T,5,Snow,337
2013-12-19,0,-6,-12,-6,-10,-14,83,77,71,30.31,30.19,30.04,10,6,2,20,13,30,0.03,7,Snow,348
2013-12-20,3,-4,-11,-2,-7,-17,87,83,78,30.19,29.91,29.80,10,10,10,12,8,,0.00,6,,186
2013-12-21,-7,-9,-11,-15,-15,-17,79,75,71,30.18,30.07,29.90,10,9,7,18,15,,0.00,6,,348
2013-12-22,-5,-9,-14,-13,-16,-22,79,69,58,30.42,30.28,30.19,10,10,10,22,17,26,0.00,6,,345
2013-12-23,-6,-14,-23,-18,-22,-28,81,69,57,30.66,30.57,30.40,10,10,10,15,7,18,0.00,0,,202
2013-12-24,20,3,-15,18,0,-20,88,76,63,30.34,30.05,29.92,10,5,0,25,15,32,0.09,7,Snow,185
2013-12-25,21,17,13,18,11,6,92,80,67,30.17,30.05,29.90,10,8,2,23,8,25,0.02,7,Snow,285
2013-12-26,23,14,4,20,8,1,92,83,73,30.11,30.06,29.99,10,9,2,13,7,15,0.01,7,Snow,135
2013-12-27,38,31,23,30,26,19,92,81,70,29.96,29.87,29.74,10,10,4,23,11,29,0.00,5,,277
2013-12-28,28,7,-14,27,5,-21,100,85,70,30.52,30.00,29.71,10,2,0,41,24,51,0.05,7,Rain-Snow,360
2013-12-29,-5,-15,-26,-15,-22,-29,86,73,59,30.55,30.41,30.23,10,10,10,22,8,26,0.00,2,,269
2013-12-30,-7,-17,-27,-13,-19,-30,82,73,64,30.34,30.27,30.17,10,8,2,15,7,17,0.01,5,Snow,355
2013-12-31,-15,-21,-28,-22,-27,-33,82,74,66,30.55,30.45,30.28,10,10,10,12,6,14,0.00,4,,348